Time;durP1;ratioP1;P1;durP2;ratioP2;P2;SDS_P1;SDS_P2;PMS_P1;PMS_P2;Temp;Humidity;BMP_temperature;BMP_pressure;BME280_temperature;BME280_humidity;BME280_pressure;Samples;Min_cycle;Max_cycle;Signal;HPM_P1;HPM_P2
2021/08/26 00:06:33;;;;;;;4.6;3.8;;;;;;;;;;;;;
2021/08/26 00:08:58;;;;;;;5.3;4.3;;;;;;;;;;;;;
2021/08/26 00:11:26;;;;;;;6.8;4.2;;;;;;;;;;;;;
2021/08/26 00:13:51;;;;;;;5;4.3;;;;;;;;;;;;;
2021/08/26 00:16:17;;;;;;;5.3;4;;;;;;;;;;;;;
2021/08/26 00:18:41;;;;;;;5.9;4;;;;;;;;;;;;;
2021/08/26 00:21:06;;;;;;;5.9;4.1;;;;;;;;;;;;;
2021/08/26 00:23:32;;;;;;;4.9;3.9;;;;;;;;;;;;;
2021/08/26 00:25:56;;;;;;;5.3;3.9;;;;;;;;;;;;;
2021/08/26 00:28:22;;;;;;;4.7;3.6;;;;;;;;;;;;;
2021/08/26 00:30:47;;;;;;;6.6;3.6;;;;;;;;;;;;;
2021/08/26 00:33:12;;;;;;;4.3;3.6;;;;;;;;;;;;;
2021/08/26 00:35:38;;;;;;;5.7;3.6;;;;;;;;;;;;;
2021/08/26 00:38:03;;;;;;;3.8;3.4;;;;;;;;;;;;;
2021/08/26 00:40:28;;;;;;;4.6;3.4;;;;;;;;;;;;;
2021/08/26 00:42:53;;;;;;;5.3;3.4;;;;;;;;;;;;;
2021/08/26 00:45:53;;;;;;;4.8;3.6;;;;;;;;;;;;;
2021/08/26 00:48:04;;;;;;;4.7;3.4;;;;;;;;;;;;;
2021/08/26 00:50:29;;;;;;;4.9;3.8;;;;;;;;;;;;;
2021/08/26 00:52:54;;;;;;;5.5;3.7;;;;;;;;;;;;;
2021/08/26 00:55:20;;;;;;;4;3.4;;;;;;;;;;;;;
2021/08/26 00:57:46;;;;;;;6.4;3.7;;;;;;;;;;;;;
2021/08/26 01:00:11;;;;;;;5.1;3.7;;;;;;;;;;;;;
2021/08/26 01:02:36;;;;;;;4.2;3.5;;;;;;;;;;;;;
2021/08/26 01:05:01;;;;;;;6.4;3.4;;;;;;;;;;;;;
2021/08/26 01:07:27;;;;;;;3.8;3.4;;;;;;;;;;;;;
2021/08/26 01:09:51;;;;;;;4.6;3.6;;;;;;;;;;;;;
2021/08/26 01:12:16;;;;;;;5.6;3.9;;;;;;;;;;;;;
2021/08/26 01:14:41;;;;;;;5.6;3.8;;;;;;;;;;;;;
2021/08/26 01:17:06;;;;;;;5;3.8;;;;;;;;;;;;;
2021/08/26 01:19:31;;;;;;;6.6;4;;;;;;;;;;;;;
2021/08/26 01:21:57;;;;;;;4.8;3.7;;;;;;;;;;;;;
2021/08/26 01:24:22;;;;;;;4.7;3.2;;;;;;;;;;;;;
2021/08/26 01:26:48;;;;;;;5.6;3.7;;;;;;;;;;;;;
2021/08/26 01:29:13;;;;;;;5.6;3.5;;;;;;;;;;;;;
2021/08/26 01:31:38;;;;;;;4.5;3.6;;;;;;;;;;;;;
2021/08/26 01:34:03;;;;;;;5.6;3.7;;;;;;;;;;;;;
2021/08/26 01:36:29;;;;;;;4.2;3.2;;;;;;;;;;;;;
2021/08/26 01:38:54;;;;;;;5;3.5;;;;;;;;;;;;;
2021/08/26 01:41:19;;;;;;;3.5;3.1;;;;;;;;;;;;;
2021/08/26 01:43:44;;;;;;;4;3.5;;;;;;;;;;;;;
2021/08/26 01:46:09;;;;;;;7.2;3.7;;;;;;;;;;;;;
2021/08/26 01:48:34;;;;;;;5.7;4;;;;;;;;;;;;;
2021/08/26 01:50:59;;;;;;;5.1;3.8;;;;;;;;;;;;;
2021/08/26 01:53:24;;;;;;;4.2;3.4;;;;;;;;;;;;;
2021/08/26 01:55:49;;;;;;;4.2;3.6;;;;;;;;;;;;;
2021/08/26 01:58:14;;;;;;;5.9;3.9;;;;;;;;;;;;;
2021/08/26 02:00:40;;;;;;;4.1;3.4;;;;;;;;;;;;;
2021/08/26 02:03:05;;;;;;;5.1;3.7;;;;;;;;;;;;;
2021/08/26 02:05:31;;;;;;;6.1;4;;;;;;;;;;;;;
2021/08/26 02:07:56;;;;;;;6.1;4;;;;;;;;;;;;;
2021/08/26 02:10:21;;;;;;;4.7;3.5;;;;;;;;;;;;;
2021/08/26 02:12:46;;;;;;;4.7;3.5;;;;;;;;;;;;;
2021/08/26 02:15:11;;;;;;;4.9;4.2;;;;;;;;;;;;;
2021/08/26 02:17:36;;;;;;;4.5;3.7;;;;;;;;;;;;;
2021/08/26 02:20:01;;;;;;;4.1;3.6;;;;;;;;;;;;;
2021/08/26 02:22:26;;;;;;;4.9;3.7;;;;;;;;;;;;;
2021/08/26 02:24:51;;;;;;;5.1;3.7;;;;;;;;;;;;;
2021/08/26 02:27:16;;;;;;;5;3.9;;;;;;;;;;;;;
2021/08/26 02:29:41;;;;;;;5.3;3.3;;;;;;;;;;;;;
2021/08/26 02:32:06;;;;;;;4.9;3.7;;;;;;;;;;;;;
2021/08/26 02:34:32;;;;;;;5.4;3.7;;;;;;;;;;;;;
2021/08/26 02:36:57;;;;;;;5;3.9;;;;;;;;;;;;;
2021/08/26 02:39:22;;;;;;;5.7;3.3;;;;;;;;;;;;;
2021/08/26 02:41:47;;;;;;;6.2;4;;;;;;;;;;;;;
2021/08/26 02:44:12;;;;;;;4.3;3.6;;;;;;;;;;;;;
2021/08/26 02:46:38;;;;;;;6.2;3.9;;;;;;;;;;;;;
2021/08/26 02:49:03;;;;;;;6.9;4.3;;;;;;;;;;;;;
2021/08/26 02:51:28;;;;;;;5.1;3.8;;;;;;;;;;;;;
2021/08/26 02:53:53;;;;;;;5;3.8;;;;;;;;;;;;;
2021/08/26 02:56:18;;;;;;;5.2;3.8;;;;;;;;;;;;;
2021/08/26 02:58:43;;;;;;;6.4;4;;;;;;;;;;;;;
2021/08/26 03:01:09;;;;;;;6.1;4;;;;;;;;;;;;;
2021/08/26 03:03:34;;;;;;;4.7;3.5;;;;;;;;;;;;;
2021/08/26 03:05:59;;;;;;;4.8;3.7;;;;;;;;;;;;;
2021/08/26 03:08:24;;;;;;;3.9;3.4;;;;;;;;;;;;;
2021/08/26 03:10:49;;;;;;;4.7;3.2;;;;;;;;;;;;;
2021/08/26 03:13:32;;;;;;;4.8;3.2;;;;;;;;;;;;;
2021/08/26 03:15:39;;;;;;;4.2;3.6;;;;;;;;;;;;;
2021/08/26 03:18:04;;;;;;;5;3.7;;;;;;;;;;;;;
2021/08/26 03:20:29;;;;;;;4.3;3.3;;;;;;;;;;;;;
2021/08/26 03:22:55;;;;;;;5;3.3;;;;;;;;;;;;;
2021/08/26 03:25:20;;;;;;;4.5;3.2;;;;;;;;;;;;;
2021/08/26 03:27:45;;;;;;;6.2;3.3;;;;;;;;;;;;;
2021/08/26 03:30:11;;;;;;;5.9;3.2;;;;;;;;;;;;;
2021/08/26 03:32:36;;;;;;;4.4;3.3;;;;;;;;;;;;;
2021/08/26 03:35:01;;;;;;;5.9;3.3;;;;;;;;;;;;;
2021/08/26 03:37:26;;;;;;;4.7;3.3;;;;;;;;;;;;;
2021/08/26 03:39:51;;;;;;;4.1;3.7;;;;;;;;;;;;;
2021/08/26 03:42:17;;;;;;;4.5;3.4;;;;;;;;;;;;;
2021/08/26 03:44:42;;;;;;;4.1;3.6;;;;;;;;;;;;;
2021/08/26 03:47:07;;;;;;;4.8;3.2;;;;;;;;;;;;;
2021/08/26 03:49:32;;;;;;;3.7;3.2;;;;;;;;;;;;;
2021/08/26 03:51:57;;;;;;;4.3;3.5;;;;;;;;;;;;;
2021/08/26 03:54:22;;;;;;;4.8;3.6;;;;;;;;;;;;;
2021/08/26 03:56:47;;;;;;;5.2;3.5;;;;;;;;;;;;;
2021/08/26 03:59:12;;;;;;;5.2;3.5;;;;;;;;;;;;;
2021/08/26 04:02:31;;;;;;;4.5;3.5;;;;;;;11.34;92.33594;935.6099;;;;
2021/08/26 04:04:56;;;;;;;4;3.3;;;;;;;11.35;92.0498;935.5469;;;;
2021/08/26 04:07:23;;;;;;;4.9;3.3;;;;;;;11.39;91.63574;935.5486;;;;
2021/08/26 04:09:48;;;;;;;10.3;6.3;;;;;;;11.43;91.30078;935.5442;;;;
2021/08/26 04:12:14;;;;;;;9.4;6.4;;;;;;;11.38;91.15332;935.535;;;;
2021/08/26 04:14:39;;;;;;;6.2;5.1;;;;;;;11.4;90.84863;935.5128;;;;
2021/08/26 04:17:04;;;;;;;4.9;4.1;;;;;;;11.33;91.26855;935.5078;;;;
2021/08/26 04:19:30;;;;;;;7.5;5.9;;;;;;;11.37;91.31152;935.4601;;;;
2021/08/26 04:21:55;;;;;;;14;11;;;;;;;11.39;91.23535;935.4458;;;;
2021/08/26 04:24:20;;;;;;;6.6;4.7;;;;;;;11.05;92.55957;935.4447;;;;
2021/08/26 04:26:45;;;;;;;5.7;3.9;;;;;;;10.7;95.19141;935.4478;;;;
2021/08/26 04:29:11;;;;;;;4.3;3.5;;;;;;;10.92;94.75781;935.409;;;;
2021/08/26 04:31:36;;;;;;;6;3.9;;;;;;;10.99;94.35254;935.3264;;;;
2021/08/26 04:34:01;;;;;;;4.9;3.8;;;;;;;11.09;94.05371;935.3795;;;;
2021/08/26 04:36:27;;;;;;;5.8;4.3;;;;;;;11.18;93.82031;935.3033;;;;
2021/08/26 04:38:51;;;;;;;4.9;4.1;;;;;;;11.27;93.78418;935.2949;;;;
2021/08/26 04:41:17;;;;;;;8;4.5;;;;;;;11.47;92.5918;935.2883;;;;
2021/08/26 04:43:42;;;;;;;6.2;3.7;;;;;;;11.37;92.25977;935.2217;;;;
2021/08/26 04:46:07;;;;;;;5.8;4.3;;;;;;;11.43;92.11328;935.3178;;;;
2021/08/26 04:48:32;;;;;;;6;3.9;;;;;;;11.55;91.63574;935.3242;;;;
2021/08/26 04:50:57;;;;;;;7.2;4;;;;;;;11.59;91.79492;935.3578;;;;
2021/08/26 04:53:22;;;;;;;6;3.9;;;;;;;11.72;91.59082;935.4092;;;;
2021/08/26 04:55:48;;;;;;;4.7;3.8;;;;;;;11.78;91.2832;935.4308;;;;
2021/08/26 04:58:13;;;;;;;5.8;4.1;;;;;;;11.83;91.375;935.3157;;;;
2021/08/26 05:00:40;;;;;;;3.6;3.2;;;;;;;11.9;90.15137;935.3572;;;;
2021/08/26 05:03:05;;;;;;;5.7;3.5;;;;;;;11.95;89.83984;935.3699;;;;
2021/08/26 05:05:31;;;;;;;6.6;3.3;;;;;;;11.96;89.68262;935.3778;;;;
2021/08/26 05:07:56;;;;;;;5;3.3;;;;;;;11.89;90.36719;935.3531;;;;
2021/08/26 05:10:23;;;;;;;4.2;3.4;;;;;;;11.79;91.0791;935.3137;;;;
2021/08/26 05:12:48;;;;;;;4.7;3.3;;;;;;;11.74;91.91504;935.3311;;;;
2021/08/26 05:15:13;;;;;;;4.4;3.4;;;;;;;11.96;91.35547;935.4648;;;;
2021/08/26 05:17:38;;;;;;;4.6;3.4;;;;;;;12.13;90.81641;935.4537;;;;
2021/08/26 05:20:04;;;;;;;5.4;3;;;;;;;12.23;90.42676;935.5098;;;;
2021/08/26 05:22:29;;;;;;;5.4;3.3;;;;;;;12.28;89.95703;935.5297;;;;
2021/08/26 05:24:55;;;;;;;5.1;3.5;;;;;;;12.47;88.74414;935.5862;;;;
2021/08/26 05:27:20;;;;;;;5.9;3.5;;;;;;;12.4;88.66016;935.519;;;;
2021/08/26 05:29:46;;;;;;;3.4;3.1;;;;;;;12.34;89.17676;935.5352;;;;
2021/08/26 05:32:11;;;;;;;4.2;3.4;;;;;;;12.31;89.44629;935.493;;;;
2021/08/26 05:34:36;;;;;;;6.3;4.2;;;;;;;12.41;89.21484;935.5366;;;;
2021/08/26 05:37:01;;;;;;;6;3.7;;;;;;;12.44;90.47168;935.4985;;;;
2021/08/26 05:39:26;;;;;;;3.6;2.7;;;;;;;13.43;87.05664;935.457;;;;
2021/08/26 05:41:52;;;;;;;5.1;3;;;;;;;14.14;82.75488;935.4429;;;;
2021/08/26 05:44:17;;;;;;;3.2;2.6;;;;;;;15.09;77.55859;935.4017;;;;
2021/08/26 05:46:42;;;;;;;4.1;2.4;;;;;;;15.68;75.62891;935.4197;;;;
2021/08/26 05:49:07;;;;;;;4.1;2.2;;;;;;;16.88;71.81445;935.4439;;;;
2021/08/26 05:51:32;;;;;;;2.4;2.2;;;;;;;18.4;65.55469;935.3978;;;;
2021/08/26 05:53:57;;;;;;;3.2;2.3;;;;;;;19.38;61.95996;935.3456;;;;
2021/08/26 05:56:23;;;;;;;2.2;1.9;;;;;;;18.31;63.13477;935.3848;;;;
2021/08/26 05:58:48;;;;;;;3.8;2.3;;;;;;;19.36;60.11719;935.3113;;;;
2021/08/26 06:01:13;;;;;;;2.2;2;;;;;;;21.06;55.95117;935.2845;;;;
2021/08/26 06:03:38;;;;;;;3.4;2.2;;;;;;;22.06;52.33789;935.2768;;;;
2021/08/26 06:06:04;;;;;;;2.4;1.7;;;;;;;22.16;50.70898;935.2693;;;;
2021/08/26 06:08:30;;;;;;;2.8;2.1;;;;;;;21.14;53.62207;935.2996;;;;
2021/08/26 06:10:55;;;;;;;2.8;1.8;;;;;;;21.59;52.77441;935.3203;;;;
2021/08/26 06:13:20;;;;;;;2.1;1.9;;;;;;;20.93;55.04688;935.3738;;;;
2021/08/26 06:15:46;;;;;;;2.2;2;;;;;;;20.92;54.99805;935.3031;;;;
2021/08/26 06:18:12;;;;;;;2.8;2;;;;;;;19.66;58.47949;935.2678;;;;
2021/08/26 06:20:39;;;;;;;2.8;2;;;;;;;19.83;58.63086;935.2629;;;;
2021/08/26 06:23:03;;;;;;;3.1;2.3;;;;;;;19.55;59.73535;935.2344;;;;
2021/08/26 06:25:28;;;;;;;2.9;2;;;;;;;19.43;60.41797;935.1893;;;;
2021/08/26 06:27:56;;;;;;;3.5;2.8;;;;;;;19.18;61.16309;935.1276;;;;
2021/08/26 06:30:19;;;;;;;2.8;2.3;;;;;;;19.46;62.72852;935.157;;;;
2021/08/26 06:32:44;;;;;;;3.4;2.6;;;;;;;20.41;58.0293;935.212;;;;
2021/08/26 06:35:11;;;;;;;2.4;2.2;;;;;;;19.62;59.48926;935.2179;;;;
2021/08/26 06:37:34;;;;;;;3.7;2.7;;;;;;;18.48;63.47363;935.1646;;;;
2021/08/26 06:40:00;;;;;;;2.3;2.1;;;;;;;17.69;66.02832;935.0203;;;;
2021/08/26 06:42:25;;;;;;;2.7;2.4;;;;;;;17.63;67.32031;935.0076;;;;
2021/08/26 06:44:53;;;;;;;3.8;2.7;;;;;;;17.8;66.76465;935.0418;;;;
2021/08/26 06:47:16;;;;;;;2.5;1.9;;;;;;;17.2;69.35352;935.0016;;;;
2021/08/26 06:49:40;;;;;;;2.3;2.1;;;;;;;16.97;72.0498;934.9338;;;;
2021/08/26 06:52:15;;;;;;;2.6;2.3;;;;;;;17.33;71.77441;934.9928;;;;
2021/08/26 06:54:41;;;;;;;3.6;2.2;;;;;;;17.54;69.66211;934.9756;;;;
2021/08/26 06:57:06;;;;;;;2.2;2;;;;;;;17.96;68.02148;935.0399;;;;
2021/08/26 06:59:31;;;;;;;2.8;2.2;;;;;;;17.91;67.83887;934.9991;;;;
2021/08/26 07:01:56;;;;;;;3.2;2.2;;;;;;;18.03;68.42676;934.9256;;;;
2021/08/26 07:04:21;;;;;;;2.3;2;;;;;;;18.28;65.94336;934.9132;;;;
2021/08/26 07:06:46;;;;;;;3.1;2.3;;;;;;;18.36;68.17578;934.9063;;;;
2021/08/26 07:09:12;;;;;;;4.9;2.4;;;;;;;18.45;65.8291;934.9278;;;;
2021/08/26 07:11:37;;;;;;;5.3;2.8;;;;;;;18.13;65.21191;934.8812;;;;
2021/08/26 07:14:02;;;;;;;4.4;2.9;;;;;;;18.06;65.8291;934.8354;;;;
2021/08/26 07:16:27;;;;;;;2.9;2.2;;;;;;;18.25;64.61523;934.8713;;;;
2021/08/26 07:18:52;;;;;;;2.2;2;;;;;;;18.04;66.08105;934.7119;;;;
2021/08/26 07:21:17;;;;;;;1.8;1.7;;;;;;;18.1;67.22949;934.7;;;;
2021/08/26 07:23:42;;;;;;;3.6;2.1;;;;;;;17.93;66.15918;934.6635;;;;
2021/08/26 07:26:08;;;;;;;2.2;2;;;;;;;18.06;65.75879;934.6356;;;;
2021/08/26 07:28:33;;;;;;;3.2;1.8;;;;;;;18.35;65.19922;934.6043;;;;
2021/08/26 07:30:59;;;;;;;2.8;2.2;;;;;;;18.62;65.16797;934.5595;;;;
2021/08/26 07:33:24;;;;;;;2.4;2;;;;;;;18.4;66.04297;934.5426;;;;
2021/08/26 07:35:49;;;;;;;2.5;2.3;;;;;;;18.83;65.73535;934.4835;;;;
2021/08/26 07:38:14;;;;;;;2.4;2.1;;;;;;;19.85;60.79102;934.5214;;;;
2021/08/26 07:40:39;;;;;;;2.8;1.8;;;;;;;20.55;61.83203;934.5433;;;;
2021/08/26 07:43:05;;;;;;;2.6;2;;;;;;;21.85;56.36816;934.4661;;;;
2021/08/26 07:45:30;;;;;;;3;1.8;;;;;;;22.25;52.7832;934.4403;;;;
2021/08/26 07:47:55;;;;;;;2.9;1.9;;;;;;;21.8;54.07715;934.4899;;;;
2021/08/26 07:50:21;;;;;;;2.2;2;;;;;;;21.71;54.89746;934.5305;;;;
2021/08/26 07:52:45;;;;;;;2.7;2;;;;;;;21.46;54.63184;934.5103;;;;
2021/08/26 07:55:10;;;;;;;2.1;1.9;;;;;;;21.42;54.83691;934.552;;;;
2021/08/26 07:57:36;;;;;;;2;1.9;;;;;;;21.65;55.7793;934.4878;;;;
2021/08/26 08:00:00;;;;;;;2.3;1.8;;;;;;;22.31;52.44922;934.4239;;;;
2021/08/26 08:02:26;;;;;;;1.6;1.5;;;;;;;23.05;50.29297;934.3992;;;;
2021/08/26 08:04:51;;;;;;;2.1;1.9;;;;;;;22.47;50.9668;934.3526;;;;
2021/08/26 08:07:16;;;;;;;1.6;1.5;;;;;;;23.95;49.19434;934.3414;;;;
2021/08/26 08:09:41;;;;;;;2.4;1.7;;;;;;;24.11;48.45801;934.3321;;;;
2021/08/26 08:12:06;;;;;;;2.4;1.7;;;;;;;25.21;46.16895;934.2687;;;;
2021/08/26 08:14:31;;;;;;;2.1;1.7;;;;;;;27.01;41.73242;934.1574;;;;
2021/08/26 08:16:57;;;;;;;1.7;1.6;;;;;;;28.75;39.28906;934.2185;;;;
2021/08/26 08:19:22;;;;;;;2.8;1.6;;;;;;;28.88;37.91992;934.2154;;;;
2021/08/26 08:21:47;;;;;;;1.5;1.4;;;;;;;28.64;38.57715;934.11;;;;
2021/08/26 08:24:12;;;;;;;2.5;1.6;;;;;;;29.91;34.77441;934.092;;;;
2021/08/26 08:26:37;;;;;;;1.5;1.4;;;;;;;30.38;34.95313;933.9705;;;;
2021/08/26 08:29:02;;;;;;;1.5;1.4;;;;;;;30.97;33.7793;933.9614;;;;
2021/08/26 08:31:27;;;;;;;1.3;1.2;;;;;;;31.86;32.35938;933.9576;;;;
2021/08/26 08:33:52;;;;;;;1.5;1.4;;;;;;;32.22;30.44238;933.952;;;;
2021/08/26 08:36:20;;;;;;;1.7;1.6;;;;;;;32.15;31.78125;933.9331;;;;
2021/08/26 08:38:42;;;;;;;2.1;1.7;;;;;;;30.75;34.37207;933.9283;;;;
2021/08/26 08:41:08;;;;;;;1.6;1.4;;;;;;;30.24;34.9541;933.9037;;;;
2021/08/26 08:43:33;;;;;;;2;1.3;;;;;;;29.55;35.22266;933.9099;;;;
2021/08/26 08:45:58;;;;;;;1.9;1.7;;;;;;;30.61;33.41699;933.8908;;;;
2021/08/26 08:48:23;;;;;;;1.7;1.6;;;;;;;28.63;37.92188;934.0095;;;;
2021/08/26 08:50:48;;;;;;;2.2;1.5;;;;;;;29.62;36.03906;933.9104;;;;
2021/08/26 08:53:21;;;;;;;1.8;1.7;;;;;;;27.69;42.36621;933.9644;;;;
2021/08/26 08:55:46;;;;;;;2.4;1.7;;;;;;;27.48;41.49121;933.9279;;;;
2021/08/26 08:58:11;;;;;;;2;1.7;;;;;;;27.47;41.91797;933.8491;;;;
2021/08/26 09:00:36;;;;;;;1.7;1.6;;;;;;;27.16;42.35156;933.9064;;;;
2021/08/26 09:03:02;;;;;;;1.9;1.7;;;;;;;25.2;45.81445;933.748;;;;
2021/08/26 09:05:27;;;;;;;2.1;1.7;;;;;;;25.31;48.59961;933.7966;;;;
2021/08/26 09:07:51;;;;;;;1.9;1.7;;;;;;;25.11;50.18359;933.764;;;;
2021/08/26 09:10:18;;;;;;;2.5;1.7;;;;;;;27.7;42.50879;933.7644;;;;
2021/08/26 09:12:42;;;;;;;1.8;1.6;;;;;;;26.87;45.86719;933.8043;;;;
2021/08/26 09:15:07;;;;;;;2;1.8;;;;;;;28.26;41.24316;933.762;;;;
2021/08/26 09:17:32;;;;;;;1.9;1.7;;;;;;;27.47;42.4043;933.7034;;;;
2021/08/26 09:19:57;;;;;;;2.8;1.7;;;;;;;28.26;40.7793;933.762;;;;
2021/08/26 09:22:22;;;;;;;2;1.8;;;;;;;27.99;42.33398;933.7386;;;;
2021/08/26 09:24:47;;;;;;;2.8;1.7;;;;;;;27.19;44.69043;933.7057;;;;
2021/08/26 09:27:13;;;;;;;1.9;1.7;;;;;;;28.44;41.02148;933.7299;;;;
2021/08/26 09:29:38;;;;;;;2.5;1.8;;;;;;;26.64;45.80762;933.6636;;;;
2021/08/26 09:32:03;;;;;;;2.6;1.7;;;;;;;26.77;44.73047;933.601;;;;
2021/08/26 09:34:28;;;;;;;2.2;1.8;;;;;;;26.8;42.02148;933.6534;;;;
2021/08/26 09:36:53;;;;;;;2;1.5;;;;;;;25.82;44.54199;933.5783;;;;
2021/08/26 09:39:18;;;;;;;1.9;1.7;;;;;;;25.51;45.91699;933.5778;;;;
2021/08/26 09:41:44;;;;;;;2.7;1.6;;;;;;;25.83;47.62891;933.5036;;;;
2021/08/26 09:44:08;;;;;;;2.5;2.1;;;;;;;24.71;50.43359;933.5181;;;;
2021/08/26 09:46:34;;;;;;;2.7;2;;;;;;;25.09;47.96191;933.5112;;;;
2021/08/26 09:48:59;;;;;;;2.3;1.8;;;;;;;24.84;46.82813;933.4283;;;;
2021/08/26 09:51:24;;;;;;;2.6;2.4;;;;;;;23.35;52.64355;933.4973;;;;
2021/08/26 09:53:49;;;;;;;2.5;2.2;;;;;;;22.78;54.30176;933.3483;;;;
2021/08/26 09:56:14;;;;;;;2.7;2.1;;;;;;;23.02;54.25977;933.3435;;;;
2021/08/26 09:58:39;;;;;;;3.3;2;;;;;;;22.7;53.48145;933.3122;;;;
2021/08/26 10:01:05;;;;;;;3.1;2.1;;;;;;;23.25;53.27734;933.3308;;;;
2021/08/26 10:03:30;;;;;;;4.1;2.4;;;;;;;23.26;55.25391;933.3083;;;;
2021/08/26 10:05:55;;;;;;;2.2;2;;;;;;;23.87;52.69238;933.2586;;;;
2021/08/26 10:08:20;;;;;;;3;2.2;;;;;;;23.73;53.37012;933.2394;;;;
2021/08/26 10:10:45;;;;;;;2.4;1.9;;;;;;;23.97;49.38477;933.2521;;;;
2021/08/26 10:13:10;;;;;;;2.9;2.5;;;;;;;23.44;52.94727;933.236;;;;
2021/08/26 10:15:38;;;;;;;3.8;2.4;;;;;;;23.41;53.37891;933.1672;;;;
2021/08/26 10:18:01;;;;;;;3;2.4;;;;;;;22.54;54.76563;933.1923;;;;
2021/08/26 10:20:26;;;;;;;3.1;2.3;;;;;;;22.97;53.14941;933.1475;;;;
2021/08/26 10:22:51;;;;;;;2.8;2.2;;;;;;;21.92;55.80176;933.0667;;;;
2021/08/26 10:25:16;;;;;;;2.3;2.1;;;;;;;22.61;55.41992;933.1411;;;;
2021/08/26 10:27:41;;;;;;;2.5;2.2;;;;;;;22.59;58.09375;933.0884;;;;
2021/08/26 10:30:06;;;;;;;3.1;2.7;;;;;;;22.33;55.9707;933.0701;;;;
2021/08/26 10:32:53;;;;;;;2.2;2;;;;;;;22.5;54.7373;933.0066;;;;
2021/08/26 10:35:18;;;;;;;2.8;2.5;;;;;;;22.33;54.82129;933.0244;;;;
2021/08/26 10:37:44;;;;;;;3.6;2.6;;;;;;;23.02;56.65625;933.052;;;;
2021/08/26 10:40:09;;;;;;;3.3;2.4;;;;;;;23.85;52.97266;933.0427;;;;
2021/08/26 10:42:34;;;;;;;4.4;2.2;;;;;;;24.2;51.13086;933.0364;;;;
2021/08/26 10:44:59;;;;;;;2.9;2.4;;;;;;;24.92;48.58203;932.9794;;;;
2021/08/26 10:47:24;;;;;;;2.6;2.1;;;;;;;24.28;46.54395;932.9531;;;;
2021/08/26 10:49:49;;;;;;;3.7;2.5;;;;;;;24.34;50.65137;932.9825;;;;
2021/08/26 10:52:15;;;;;;;1.9;1.7;;;;;;;24.59;46.54199;933.007;;;;
2021/08/26 10:54:40;;;;;;;3.5;2.1;;;;;;;24.77;48.69531;933.0059;;;;
2021/08/26 10:57:05;;;;;;;2.8;1.9;;;;;;;24.36;46.23438;932.8156;;;;
2021/08/26 10:59:30;;;;;;;2.4;2.1;;;;;;;24.91;49.19336;932.8747;;;;
2021/08/26 11:01:55;;;;;;;2.8;2;;;;;;;25.04;44.04004;932.9066;;;;
2021/08/26 11:04:20;;;;;;;2.2;1.8;;;;;;;24.37;46.44727;932.8438;;;;
2021/08/26 11:06:46;;;;;;;2.8;1.9;;;;;;;24.17;47.87598;932.8206;;;;
2021/08/26 11:09:11;;;;;;;2.1;1.9;;;;;;;22.98;52.58789;933.0073;;;;
2021/08/26 11:11:37;;;;;;;2.3;1.9;;;;;;;23.53;49.91211;932.9308;;;;
2021/08/26 11:14:01;;;;;;;4.2;2.3;;;;;;;23.03;50.15137;932.8217;;;;
2021/08/26 11:17:11;;;;;;;2.4;2.2;;;;;;;22.31;51.14746;932.8633;;;;
2021/08/26 11:19:37;;;;;;;2.2;2;;;;;;;22.11;54.37207;932.9081;;;;
2021/08/26 11:22:01;;;;;;;1.9;1.7;;;;;;;21.74;54.01074;932.9484;;;;
2021/08/26 11:24:27;;;;;;;3;2.2;;;;;;;21.59;55.71289;932.9622;;;;
2021/08/26 11:26:51;;;;;;;3.1;2.3;;;;;;;20.8;56.01172;933.0092;;;;
2021/08/26 11:29:17;;;;;;;2.4;2.2;;;;;;;20.66;57.23242;932.993;;;;
2021/08/26 11:31:42;;;;;;;2.6;2.2;;;;;;;20.74;58.14355;932.9922;;;;
2021/08/26 11:34:07;;;;;;;2.7;2.3;;;;;;;20.89;58.33789;933.0864;;;;
2021/08/26 11:36:32;;;;;;;2.7;2.4;;;;;;;20.9;57.48535;933.087;;;;
2021/08/26 11:38:57;;;;;;;3.7;2.6;;;;;;;20.69;61.52539;932.9749;;;;
2021/08/26 11:41:22;;;;;;;3.3;2.5;;;;;;;20.63;57.52051;932.8831;;;;
2021/08/26 11:43:48;;;;;;;2.2;2;;;;;;;20.29;58.48047;932.8189;;;;
2021/08/26 11:46:13;;;;;;;2.8;2.3;;;;;;;20.2;59.22852;932.9682;;;;
2021/08/26 11:48:39;;;;;;;3.4;2.2;;;;;;;20.06;58.2168;932.8967;;;;
2021/08/26 11:51:04;;;;;;;3;2.4;;;;;;;20.03;61.04883;933.0051;;;;
2021/08/26 11:53:29;;;;;;;2.9;2.6;;;;;;;20.08;62.71191;932.9832;;;;
2021/08/26 11:55:54;;;;;;;2.8;2.3;;;;;;;20.04;61.63184;932.9976;;;;
2021/08/26 11:58:19;;;;;;;2.5;2.1;;;;;;;19.89;60.36523;932.9958;;;;
2021/08/26 12:00:45;;;;;;;2.3;2.1;;;;;;;20;62.09473;933.0648;;;;
2021/08/26 12:03:10;;;;;;;4;2.2;;;;;;;19.81;63.7002;933.008;;;;
2021/08/26 12:05:39;;;;;;;2.4;2.2;;;;;;;20.1;65.82031;933.0494;;;;
2021/08/26 12:08:00;;;;;;;2.7;2.2;;;;;;;20.19;65.98438;933.0511;;;;
2021/08/26 12:10:26;;;;;;;3.3;2.5;;;;;;;19.84;65.86133;933.1085;;;;
2021/08/26 12:12:51;;;;;;;2.9;2.4;;;;;;;19.65;67.52344;933.1544;;;;
2021/08/26 12:15:16;;;;;;;6.5;4.3;;;;;;;19.13;66.83984;933.1215;;;;
2021/08/26 12:17:42;;;;;;;3;2.2;;;;;;;18.88;66.15039;933.1735;;;;
2021/08/26 12:20:06;;;;;;;3.5;2.9;;;;;;;18.77;67.22656;933.1845;;;;
2021/08/26 12:22:32;;;;;;;2.9;2.4;;;;;;;18.81;68.86328;933.1389;;;;
2021/08/26 12:24:57;;;;;;;3;2.5;;;;;;;18.77;68.09863;933.0597;;;;
2021/08/26 12:27:23;;;;;;;2.6;2.4;;;;;;;18.71;69.97461;933.067;;;;
2021/08/26 12:29:49;;;;;;;2.5;2.3;;;;;;;18.89;72.76172;933.1795;;;;
2021/08/26 12:32:14;;;;;;;2.8;2.4;;;;;;;19.35;69.45898;933.1842;;;;
2021/08/26 12:34:39;;;;;;;2.5;2.3;;;;;;;19.32;69.58301;933.128;;;;
2021/08/26 12:37:04;;;;;;;4.2;2.2;;;;;;;19.08;68.1582;933.1191;;;;
2021/08/26 12:39:29;;;;;;;3.7;2.6;;;;;;;19.34;68.40918;933.225;;;;
2021/08/26 12:41:54;;;;;;;3.3;2.6;;;;;;;19.48;68.96582;933.2191;;;;
2021/08/26 12:44:19;;;;;;;3.3;2.6;;;;;;;19.63;69.31641;933.1663;;;;
2021/08/26 12:46:48;;;;;;;2.3;2.1;;;;;;;20.05;66.01172;933.1239;;;;
2021/08/26 12:49:10;;;;;;;2.8;2.3;;;;;;;20.45;64.83203;933.0474;;;;
2021/08/26 12:51:35;;;;;;;3.2;2.6;;;;;;;20.76;64.21191;933.0529;;;;
2021/08/26 12:54:00;;;;;;;3.1;2.6;;;;;;;20.89;64.20703;933.0541;;;;
2021/08/26 12:56:26;;;;;;;3;2.6;;;;;;;21.06;62.36035;933.0168;;;;
2021/08/26 12:58:50;;;;;;;2.9;2.6;;;;;;;21.2;62.74316;933.03;;;;
2021/08/26 13:01:16;;;;;;;5.8;3.2;;;;;;;20.91;62.12891;933.0953;;;;
2021/08/26 13:03:41;;;;;;;4.7;2.3;;;;;;;21.08;61.49805;933.0908;;;;
2021/08/26 13:06:06;;;;;;;4.1;2.7;;;;;;;21.12;61.07031;933.1038;;;;
2021/08/26 13:08:31;;;;;;;3.2;2.9;;;;;;;21.08;60.95996;933.0209;;;;
2021/08/26 13:10:56;;;;;;;3.1;2.7;;;;;;;21.04;60.16992;932.9457;;;;
2021/08/26 13:13:21;;;;;;;2.5;2.3;;;;;;;20.94;59.67773;932.992;;;;
2021/08/26 13:15:46;;;;;;;3.3;3;;;;;;;20.61;60.5791;932.9833;;;;
2021/08/26 13:18:11;;;;;;;3.9;2.8;;;;;;;20.5;62.15234;932.9453;;;;
2021/08/26 13:20:37;;;;;;;4.4;2.9;;;;;;;20.07;63.63281;933.0522;;;;
2021/08/26 13:23:03;;;;;;;3.8;3.1;;;;;;;20.14;63.1416;932.9575;;;;
2021/08/26 13:25:28;;;;;;;3.2;2.7;;;;;;;20.07;62.98926;933.0136;;;;
2021/08/26 13:27:53;;;;;;;3.4;2.7;;;;;;;20.05;63.19824;932.9697;;;;
2021/08/26 13:30:18;;;;;;;3.6;3.1;;;;;;;20;63.93848;932.992;;;;
2021/08/26 13:32:43;;;;;;;3.8;3.2;;;;;;;19.92;65.16211;932.966;;;;
2021/08/26 13:35:10;;;;;;;4.9;3.8;;;;;;;19.79;65.95996;933.038;;;;
2021/08/26 13:37:35;;;;;;;4.5;3.8;;;;;;;19.72;67.15137;933.0273;;;;
2021/08/26 13:40:00;;;;;;;4.7;4.2;;;;;;;19.35;69.41211;933.0783;;;;
2021/08/26 13:42:27;;;;;;;6.1;4.4;;;;;;;18.82;72.48145;933.1727;;;;
2021/08/26 13:44:52;;;;;;;7;4.7;;;;;;;18.84;73.34766;933.132;;;;
2021/08/26 13:47:18;;;;;;;6.4;5.5;;;;;;;18.44;75.3623;933.1807;;;;
2021/08/26 13:49:43;;;;;;;7.2;5.5;;;;;;;18.48;75.4502;933.1418;;;;
2021/08/26 13:52:08;;;;;;;6.5;5.7;;;;;;;18.16;78.38184;933.1583;;;;
2021/08/26 13:54:33;;;;;;;7.2;5.5;;;;;;;18.25;78.85156;933.1965;;;;
2021/08/26 13:56:58;;;;;;;7.1;5.9;;;;;;;18.09;79.28809;933.2263;;;;
2021/08/26 13:59:23;;;;;;;7.4;5.8;;;;;;;18.04;79.45313;933.2672;;;;
2021/08/26 14:01:50;;;;;;;7.3;6;;;;;;;17.94;80.09668;933.3597;;;;
2021/08/26 14:04:14;;;;;;;8.7;6.5;;;;;;;17.84;81.55371;933.2876;;;;
2021/08/26 14:06:39;;;;;;;7.3;6.4;;;;;;;17.75;82.13867;933.2744;;;;
2021/08/26 14:09:04;;;;;;;8.7;6.7;;;;;;;17.66;81.99609;933.278;;;;
2021/08/26 14:11:30;;;;;;;8.5;6.6;;;;;;;17.35;84.09375;933.4011;;;;
2021/08/26 14:13:56;;;;;;;9.8;7.4;;;;;;;17.32;84.37695;933.5033;;;;
2021/08/26 14:16:21;;;;;;;9.3;7.3;;;;;;;17.41;84.96484;933.5172;;;;
2021/08/26 14:18:46;;;;;;;10;8.1;;;;;;;17.21;85.96777;933.4009;;;;
2021/08/26 14:21:11;;;;;;;10.2;7.8;;;;;;;17.18;86.03223;933.2414;;;;
2021/08/26 14:23:37;;;;;;;10.8;7.8;;;;;;;17.36;85.67285;933.3092;;;;
2021/08/26 14:26:01;;;;;;;11.5;8;;;;;;;17.32;85.59668;933.277;;;;
2021/08/26 14:28:27;;;;;;;11.9;8.3;;;;;;;17.42;85.9502;933.2981;;;;
2021/08/26 14:30:52;;;;;;;10.9;8.7;;;;;;;17.45;87.52344;933.3265;;;;
2021/08/26 14:33:17;;;;;;;9.6;7.7;;;;;;;17.49;84.87402;933.4221;;;;
2021/08/26 14:35:43;;;;;;;9.5;8.3;;;;;;;17.53;84.68359;933.4639;;;;
2021/08/26 14:38:08;;;;;;;9.3;7.5;;;;;;;17.21;84.63477;933.3961;;;;
2021/08/26 14:40:33;;;;;;;8.5;6.7;;;;;;;17.19;85.67383;933.3041;;;;
2021/08/26 14:42:58;;;;;;;8.2;7.1;;;;;;;17.29;85.84473;933.3141;;;;
2021/08/26 14:45:24;;;;;;;8.5;6.9;;;;;;;;;;;;;
2021/08/26 14:47:49;;;;;;;9;7.3;;;;;;;;;;;;;
2021/08/26 14:50:14;;;;;;;9.4;7;;;;;;;;;;;;;
2021/08/26 14:52:39;;;;;;;10.5;8.2;;;;;;;;;;;;;
2021/08/26 14:55:05;;;;;;;10.1;8.2;;;;;;;;;;;;;
2021/08/26 14:57:30;;;;;;;11.8;8.5;;;;;;;;;;;;;
2021/08/26 14:59:55;;;;;;;8.6;7.7;;;;;;;;;;;;;
2021/08/26 15:02:20;;;;;;;10.8;8.4;;;;;;;;;;;;;
2021/08/26 15:04:45;;;;;;;9.8;8.2;;;;;;;;;;;;;
2021/08/26 15:07:10;;;;;;;10.1;8.2;;;;;;;;;;;;;
2021/08/26 15:09:35;;;;;;;11.7;9.7;;;;;;;;;;;;;
2021/08/26 15:12:00;;;;;;;12.7;10.5;;;;;;;;;;;;;
2021/08/26 15:14:25;;;;;;;12.8;10.6;;;;;;;;;;;;;
2021/08/26 15:16:50;;;;;;;13.6;10.8;;;;;;;;;;;;;
2021/08/26 15:19:15;;;;;;;12.7;10.5;;;;;;;;;;;;;
2021/08/26 15:21:40;;;;;;;12.7;10;;;;;;;;;;;;;
2021/08/26 15:24:05;;;;;;;13.6;10.9;;;;;;;;;;;;;
2021/08/26 15:26:31;;;;;;;14.2;9.6;;;;;;;;;;;;;
2021/08/26 15:28:56;;;;;;;12.5;10.2;;;;;;;;;;;;;
2021/08/26 15:31:21;;;;;;;12.3;9.7;;;;;;;;;;;;;
2021/08/26 15:33:46;;;;;;;13.3;10;;;;;;;;;;;;;
2021/08/26 15:36:11;;;;;;;12.6;9.5;;;;;;;;;;;;;
2021/08/26 15:38:37;;;;;;;12.2;9.7;;;;;;;;;;;;;
2021/08/26 15:41:02;;;;;;;12.6;9.6;;;;;;;;;;;;;
2021/08/26 15:43:27;;;;;;;45.5;19.2;;;;;;;;;;;;;
2021/08/26 15:45:52;;;;;;;13.7;9.5;;;;;;;;;;;;;
2021/08/26 15:48:17;;;;;;;14.7;10.6;;;;;;;;;;;;;
2021/08/26 15:50:42;;;;;;;12.3;9.9;;;;;;;;;;;;;
2021/08/26 15:53:11;;;;;;;14.7;9.7;;;;;;;;;;;;;
2021/08/26 15:55:37;;;;;;;13.1;9.4;;;;;;;;;;;;;